createdAt,value
2017-12-24T00:00:50.873Z,7.77
2017-12-24T00:03:26.149Z,7.47
2017-12-24T00:06:00.736Z,8.07
2017-12-24T00:08:41.170Z,8.23
2017-12-24T00:11:18.392Z,7.80
2017-12-24T00:13:51.612Z,8.83
2017-12-24T00:16:31.842Z,8.70
2017-12-24T00:19:03.749Z,8.63
2017-12-24T00:21:41.831Z,8.10
2017-12-24T00:24:14.943Z,8.77
2017-12-24T00:26:46.620Z,6.60
2017-12-24T00:29:16.403Z,6.80
2017-12-24T00:31:49.220Z,6.27
2017-12-24T00:34:23.629Z,5.50
2017-12-24T00:36:58.281Z,6.03
2017-12-24T00:39:30.392Z,6.13
2017-12-24T00:42:04.317Z,6.20
2017-12-24T00:44:40.438Z,5.90
2017-12-24T00:47:13.887Z,6.03
2017-12-24T00:49:43.788Z,6.10
2017-12-24T00:52:14.752Z,6.13
2017-12-24T00:54:45.974Z,6.73
2017-12-24T00:57:20.304Z,6.57
2017-12-24T00:59:52.994Z,7.23
2017-12-24T01:02:28.122Z,7.63
2017-12-24T01:05:40.425Z,7.50
2017-12-24T01:08:16.656Z,7.50
2017-12-24T01:10:51.331Z,7.20
2017-12-24T01:13:23.709Z,8.40
2017-12-24T01:15:54.210Z,7.47
2017-12-24T01:18:28.965Z,7.07
2017-12-24T01:28:04.698Z,5.43
2017-12-24T01:30:37.411Z,5.10
2017-12-24T01:39:18.100Z,5.40
2017-12-24T01:41:51.677Z,4.80
2017-12-24T01:47:24.721Z,4.90
2017-12-24T01:50:45.828Z,5.13
2017-12-24T01:53:24.070Z,4.63
2017-12-24T01:56:02.729Z,5.10
2017-12-24T01:58:35.398Z,5.50
2017-12-24T02:01:09.069Z,5.13
2017-12-24T02:03:39.962Z,4.80
2017-12-24T02:06:59.108Z,4.30
2017-12-24T02:09:32.041Z,4.50
2017-12-24T02:12:06.944Z,4.10
2017-12-24T02:14:46.045Z,4.67
2017-12-24T02:17:19.484Z,4.47
2017-12-24T02:22:38.598Z,4.07
2017-12-24T02:25:08.077Z,4.30
2017-12-24T02:27:38.501Z,4.23
2017-12-24T02:30:11.655Z,4.43
2017-12-24T02:32:50.442Z,4.37
2017-12-24T02:35:22.896Z,4.50
2017-12-24T02:38:01.921Z,5.00
2017-12-24T02:40:39.478Z,4.40
2017-12-24T02:43:09.376Z,4.93
2017-12-24T02:45:49.075Z,5.17
2017-12-24T02:48:29.425Z,4.80
2017-12-24T03:01:53.626Z,4.67
2017-12-24T03:04:37.946Z,5.80
2017-12-24T03:07:33.053Z,5.53
2017-12-24T03:10:29.212Z,5.20
2017-12-24T03:13:01.274Z,5.03
2017-12-24T03:15:42.448Z,4.50
2017-12-24T03:18:16.884Z,4.03
2017-12-24T03:21:15.718Z,4.23
2017-12-24T03:27:13.296Z,4.00
2017-12-24T03:29:52.384Z,4.23
2017-12-24T03:32:38.461Z,3.87
2017-12-24T03:38:23.345Z,4.20
2017-12-24T03:41:06.928Z,3.73
2017-12-24T03:43:57.899Z,3.93
2017-12-24T03:46:46.007Z,3.67
2017-12-24T03:49:26.442Z,4.07
2017-12-24T03:52:06.196Z,3.90
2017-12-24T03:54:35.108Z,3.70
2017-12-24T03:57:10.973Z,3.83
2017-12-24T04:00:01.655Z,3.43
2017-12-24T04:02:34.938Z,3.60
2017-12-24T04:05:09.111Z,3.83
2017-12-24T04:07:42.171Z,3.57
2017-12-24T04:10:11.783Z,3.70
2017-12-24T04:12:44.205Z,3.53
2017-12-24T04:15:14.784Z,3.40
2017-12-24T04:17:53.290Z,3.30
2017-12-24T04:20:23.578Z,3.10
2017-12-24T04:26:17.261Z,3.13
2017-12-24T04:28:51.429Z,3.30
2017-12-24T04:31:24.411Z,2.90
2017-12-24T04:34:01.094Z,3.03
2017-12-24T04:36:34.943Z,3.20
2017-12-24T04:39:41.962Z,3.10
2017-12-24T04:42:13.991Z,3.40
2017-12-24T04:44:50.577Z,3.23
2017-12-24T04:47:21.744Z,2.70
2017-12-24T04:49:57.322Z,2.90
2017-12-24T04:52:34.651Z,2.80
2017-12-24T04:55:45.635Z,2.77
2017-12-24T04:58:18.398Z,3.20
2017-12-24T05:00:54.552Z,3.23
2017-12-24T05:03:27.163Z,2.97
2017-12-24T05:06:05.291Z,3.27
2017-12-24T05:32:52.369Z,3.40
2017-12-24T05:35:26.455Z,3.20
2017-12-24T05:37:58.190Z,3.53
2017-12-24T05:40:31.940Z,3.30
2017-12-24T05:43:06.993Z,3.40
2017-12-24T05:45:39.531Z,4.00
2017-12-24T05:48:14.782Z,3.90
2017-12-24T05:50:48.924Z,3.70
2017-12-24T05:53:19.736Z,4.10
2017-12-24T05:59:52.036Z,4.10
2017-12-24T06:02:27.585Z,4.50
2017-12-24T06:05:00.216Z,5.03
2017-12-24T06:07:32.021Z,4.87
2017-12-24T06:10:03.367Z,5.20
2017-12-24T06:12:34.510Z,5.10
2017-12-24T06:15:05.211Z,4.93
2017-12-24T06:17:35.407Z,5.07
2017-12-24T06:20:05.483Z,5.73
2017-12-24T06:22:37.157Z,5.10
2017-12-24T06:25:07.003Z,5.57
2017-12-24T06:27:40.365Z,4.53
2017-12-24T06:30:09.199Z,5.50
2017-12-24T06:32:46.242Z,4.87
2017-12-24T06:35:20.834Z,5.90
2017-12-24T06:38:00.345Z,5.40
2017-12-24T06:47:56.018Z,6.27
2017-12-24T06:50:29.181Z,5.80
2017-12-24T06:53:00.110Z,5.33
2017-12-24T06:55:29.571Z,5.73
2017-12-24T06:58:03.913Z,5.90
2017-12-24T07:00:38.549Z,5.73
2017-12-24T07:03:12.786Z,5.50
2017-12-24T07:05:45.576Z,4.93
2017-12-24T07:08:16.504Z,6.33
2017-12-24T07:10:49.394Z,5.93
2017-12-24T07:13:21.128Z,5.93
2017-12-24T07:15:50.357Z,6.33
2017-12-24T07:18:23.212Z,5.77
2017-12-24T07:20:56.903Z,6.07
2017-12-24T07:23:32.048Z,5.93
2017-12-24T07:26:14.533Z,6.60
2017-12-24T07:28:47.910Z,6.07
2017-12-24T07:31:24.853Z,6.03
2017-12-24T07:33:57.125Z,5.50
2017-12-24T07:36:30.905Z,5.03
2017-12-24T07:39:03.013Z,5.40
2017-12-24T07:41:35.247Z,5.87
2017-12-24T07:44:09.394Z,5.40
2017-12-24T07:46:45.509Z,5.30
2017-12-24T07:49:21.704Z,5.37
2017-12-24T07:51:55.744Z,5.27
2017-12-24T07:54:30.803Z,5.17
2017-12-24T07:57:05.244Z,5.10
2017-12-24T07:59:35.609Z,4.50
2017-12-24T08:02:13.388Z,4.40
2017-12-24T08:04:44.643Z,4.30
2017-12-24T08:07:16.505Z,4.07
2017-12-24T08:09:50.300Z,4.77
2017-12-24T08:12:26.268Z,4.60
2017-12-24T08:14:59.234Z,4.60
2017-12-24T08:17:31.129Z,5.13
2017-12-24T08:20:02.575Z,4.53
2017-12-24T08:22:31.805Z,5.30
2017-12-24T08:25:03.359Z,5.03
2017-12-24T08:27:37.335Z,4.97
2017-12-24T08:30:14.620Z,5.10
2017-12-24T08:32:54.857Z,5.27
2017-12-24T08:35:25.776Z,5.17
2017-12-24T08:38:09.044Z,4.13
2017-12-24T08:40:52.390Z,2.90
2017-12-24T08:44:01.551Z,3.03
2017-12-24T08:46:32.509Z,2.60
2017-12-24T08:49:03.833Z,2.40
2017-12-24T08:51:33.715Z,2.37
2017-12-24T08:54:06.898Z,2.50
2017-12-24T08:56:40.292Z,2.10
2017-12-24T08:59:34.467Z,2.00
2017-12-24T09:02:03.075Z,2.20
2017-12-24T09:04:35.151Z,2.03
2017-12-24T09:07:13.344Z,1.90
2017-12-24T09:09:46.845Z,1.83
2017-12-24T09:12:19.241Z,1.87
2017-12-24T09:14:52.159Z,1.80
2017-12-24T09:17:25.343Z,1.97
2017-12-24T09:20:01.040Z,2.37
2017-12-24T09:22:37.305Z,1.80
2017-12-24T09:25:10.841Z,2.33
2017-12-24T09:27:39.359Z,1.83
2017-12-24T09:30:33.366Z,2.20
2017-12-24T09:33:07.152Z,2.30
2017-12-24T09:35:39.779Z,2.30
2017-12-24T09:38:09.971Z,1.70
2017-12-24T09:40:47.270Z,2.10
2017-12-24T09:43:21.443Z,2.10
2017-12-24T09:46:09.231Z,2.20
2017-12-24T09:48:40.816Z,2.20
2017-12-24T09:51:11.662Z,1.90
2017-12-24T09:53:42.224Z,1.70
2017-12-24T09:56:12.812Z,1.63
2017-12-24T09:59:24.124Z,1.40
2017-12-24T10:01:54.385Z,1.37
2017-12-24T10:04:27.268Z,1.70
2017-12-24T10:06:56.052Z,1.53
2017-12-24T10:09:26.861Z,1.43
2017-12-24T10:11:58.108Z,1.87
2017-12-24T10:15:09.558Z,1.80
2017-12-24T10:17:42.982Z,1.43
2017-12-24T10:20:15.744Z,2.27
2017-12-24T10:22:45.028Z,1.80
2017-12-24T10:25:19.118Z,1.50
2017-12-24T10:27:49.143Z,1.97
2017-12-24T10:31:00.307Z,1.83
2017-12-24T10:33:31.379Z,2.60
2017-12-24T10:36:01.651Z,2.10
2017-12-24T10:38:30.356Z,2.20
2017-12-24T10:41:02.004Z,1.80
2017-12-24T10:43:33.850Z,1.77
2017-12-24T10:49:37.721Z,1.50
2017-12-24T10:52:09.010Z,1.50
2017-12-24T10:54:42.240Z,1.40
2017-12-24T10:57:15.103Z,1.17
2017-12-24T11:06:10.709Z,0.97
2017-12-24T11:08:41.683Z,1.27
2017-12-24T11:11:10.768Z,1.23
2017-12-24T11:13:40.836Z,1.30
2017-12-24T11:19:50.810Z,2.00
2017-12-24T11:22:23.995Z,2.90
2017-12-24T11:24:57.872Z,3.20
2017-12-24T11:30:46.135Z,4.70
2017-12-24T11:33:17.577Z,5.90
2017-12-24T11:35:55.959Z,6.10
2017-12-24T11:38:26.308Z,6.10
2017-12-24T11:41:01.359Z,5.97
2017-12-24T11:43:34.582Z,5.17
2017-12-24T11:46:45.559Z,4.10
2017-12-24T11:49:18.919Z,3.17
2017-12-24T11:51:52.157Z,3.10
2017-12-24T11:54:25.594Z,3.37
2017-12-24T11:56:59.501Z,2.73
2017-12-24T11:59:38.907Z,2.80
2017-12-24T12:12:22.787Z,2.23
2017-12-24T12:14:58.743Z,2.10
2017-12-24T12:21:31.594Z,1.60
2017-12-24T12:24:07.767Z,1.77
2017-12-24T12:26:39.587Z,1.57
2017-12-24T12:29:16.088Z,1.63
2017-12-24T12:35:36.275Z,1.77
2017-12-24T12:38:12.446Z,1.80
2017-12-24T12:40:50.144Z,1.87
2017-12-24T12:43:25.940Z,2.30
2017-12-24T12:46:00.971Z,2.33
2017-12-24T12:48:31.197Z,2.00
2017-12-24T12:51:05.214Z,2.50
2017-12-24T12:53:34.583Z,2.50
2017-12-24T12:56:07.121Z,2.80
2017-12-24T12:58:41.872Z,2.83
2017-12-24T13:01:20.375Z,1.90
2017-12-24T13:07:43.105Z,2.00
2017-12-24T13:10:19.217Z,1.80
2017-12-24T13:12:59.813Z,1.67
2017-12-24T13:15:30.500Z,1.60
2017-12-24T13:18:16.047Z,1.50
2017-12-24T13:20:47.281Z,1.60
2017-12-24T13:23:19.892Z,1.83
2017-12-24T13:25:49.659Z,1.83
2017-12-24T13:28:22.729Z,2.10
2017-12-24T13:31:00.426Z,1.50
2017-12-24T13:47:18.568Z,1.30
2017-12-24T14:00:36.820Z,1.30
2017-12-24T14:03:11.272Z,1.30
2017-12-24T14:05:49.153Z,0.93
2017-12-24T14:08:22.011Z,0.90
2017-12-24T14:10:58.469Z,0.90
2017-12-24T14:13:32.229Z,1.10
2017-12-24T14:16:06.411Z,1.00
2017-12-24T14:18:45.067Z,1.37
2017-12-24T14:21:21.532Z,1.17
2017-12-24T14:23:50.961Z,1.10
2017-12-24T14:26:22.166Z,0.87
2017-12-24T14:28:57.365Z,1.10
2017-12-24T14:31:34.667Z,1.37
2017-12-24T14:34:03.182Z,1.57
2017-12-24T14:36:42.200Z,1.87
2017-12-24T14:39:17.116Z,1.47
2017-12-24T14:41:52.056Z,1.33
2017-12-24T14:44:26.267Z,1.70
2017-12-24T14:47:00.225Z,1.57
2017-12-24T14:50:21.870Z,2.27
2017-12-24T14:52:53.931Z,1.60
2017-12-24T14:55:27.851Z,1.60
2017-12-24T14:58:03.613Z,1.77
2017-12-24T15:00:38.432Z,1.40
2017-12-24T15:03:10.038Z,1.37
2017-12-24T15:05:41.739Z,1.57
2017-12-24T15:08:13.324Z,1.40
2017-12-24T15:10:47.969Z,1.27
2017-12-24T15:13:23.201Z,1.60
2017-12-24T15:15:56.961Z,1.30
2017-12-24T15:18:27.766Z,1.10
2017-12-24T15:21:08.295Z,1.10
2017-12-24T15:23:43.627Z,0.83
2017-12-24T15:26:18.864Z,0.93
2017-12-24T15:28:53.211Z,0.90
2017-12-24T15:31:27.186Z,0.80
2017-12-24T15:34:02.932Z,1.10
2017-12-24T15:40:20.162Z,0.83
2017-12-24T15:42:58.479Z,0.70
2017-12-24T15:45:29.938Z,3.33
2017-12-24T15:48:07.352Z,0.83
2017-12-24T15:57:52.435Z,1.33
2017-12-24T16:00:38.082Z,1.20
2017-12-24T16:03:11.778Z,1.70
2017-12-24T16:28:29.032Z,1.10
2017-12-24T16:31:07.289Z,1.00
2017-12-24T16:33:36.661Z,1.70
2017-12-24T16:36:09.899Z,1.30
2017-12-24T16:48:55.698Z,1.10
2017-12-24T16:55:10.485Z,1.37
2017-12-24T16:57:44.562Z,1.50
2017-12-24T17:00:19.890Z,1.60
2017-12-24T17:02:55.113Z,1.43
2017-12-24T17:05:32.482Z,1.97
2017-12-24T17:08:45.276Z,1.73
2017-12-24T17:11:19.089Z,1.47
2017-12-24T17:13:52.185Z,1.60
2017-12-24T17:16:28.884Z,1.90
2017-12-24T17:19:05.564Z,1.73
2017-12-24T17:21:42.077Z,1.93
2017-12-24T17:24:43.036Z,1.70
2017-12-24T17:27:15.974Z,1.77
2017-12-24T17:29:52.089Z,2.10
2017-12-24T17:32:20.665Z,1.70
2017-12-24T17:34:54.755Z,2.07
2017-12-24T17:37:25.318Z,1.90
2017-12-24T17:39:56.310Z,2.23
2017-12-24T17:42:29.798Z,2.20
2017-12-24T17:45:02.157Z,2.03
2017-12-24T17:47:31.731Z,2.03
2017-12-24T17:50:04.971Z,2.00
2017-12-24T17:52:39.558Z,2.20
2017-12-24T17:55:12.298Z,1.80
2017-12-24T17:57:43.242Z,2.30
2017-12-24T18:00:18.553Z,1.70
2017-12-24T18:02:54.275Z,1.87
2017-12-24T18:05:27.555Z,1.90
2017-12-24T18:08:20.112Z,1.50
2017-12-24T18:11:00.313Z,1.60
2017-12-24T18:13:33.052Z,1.83
2017-12-24T18:16:07.449Z,1.60
2017-12-24T18:18:43.715Z,1.40
2017-12-24T18:21:17.342Z,1.70
2017-12-24T18:23:50.285Z,1.63
2017-12-24T18:26:21.517Z,1.60
2017-12-24T18:28:52.196Z,1.60
2017-12-24T18:31:24.304Z,1.40
2017-12-24T18:33:57.876Z,2.07
2017-12-24T18:36:30.387Z,1.70
2017-12-24T18:39:41.207Z,1.50
2017-12-24T18:42:13.482Z,1.47
2017-12-24T18:44:41.830Z,1.77
2017-12-24T18:47:13.193Z,1.40
2017-12-24T18:49:42.832Z,1.33
2017-12-24T18:52:11.215Z,1.83
2017-12-24T18:55:05.005Z,2.30
2017-12-24T18:57:35.187Z,1.67
2017-12-24T19:00:08.860Z,1.80
2017-12-24T19:02:40.701Z,1.60
2017-12-24T19:05:09.621Z,1.80
2017-12-24T19:07:45.578Z,1.60
2017-12-24T19:17:34.886Z,1.60
2017-12-24T19:20:04.531Z,1.37
2017-12-24T19:22:42.390Z,2.00
2017-12-24T19:25:21.504Z,1.47
2017-12-24T19:27:56.886Z,1.23
2017-12-24T19:30:29.204Z,1.60
2017-12-24T19:33:03.878Z,1.83
2017-12-24T19:35:50.762Z,1.90
2017-12-24T19:38:24.398Z,1.50
2017-12-24T19:41:14.957Z,2.00
2017-12-24T19:43:51.290Z,1.90
2017-12-24T19:46:21.140Z,1.77
2017-12-24T19:48:52.147Z,1.90
2017-12-24T19:51:24.240Z,2.27
2017-12-24T19:54:01.111Z,2.00
2017-12-24T19:56:31.480Z,1.93
2017-12-24T19:59:00.772Z,1.90
2017-12-24T20:01:33.671Z,2.00
2017-12-24T20:04:03.229Z,2.33
2017-12-24T20:06:34.306Z,1.93
2017-12-24T20:09:03.319Z,2.07
2017-12-24T20:11:35.566Z,1.70
2017-12-24T20:14:05.201Z,2.00
2017-12-24T20:16:35.510Z,2.30
2017-12-24T20:19:07.690Z,1.80
2017-12-24T20:21:44.766Z,2.10
2017-12-24T20:24:27.495Z,1.90
2017-12-24T20:27:23.645Z,2.23
2017-12-24T20:29:54.840Z,1.90
2017-12-24T20:32:25.490Z,2.03
2017-12-24T20:34:57.888Z,2.17
2017-12-24T20:37:34.570Z,2.03
2017-12-24T20:40:08.321Z,1.67
2017-12-24T20:42:46.862Z,1.80
2017-12-24T20:45:18.163Z,1.87
2017-12-24T20:47:49.956Z,1.93
2017-12-24T20:50:27.143Z,1.67
2017-12-24T20:53:03.968Z,1.30
2017-12-24T20:55:35.828Z,1.47
2017-12-24T20:58:08.628Z,1.70
2017-12-24T21:00:46.669Z,1.37
2017-12-24T21:03:19.395Z,1.80
2017-12-24T21:05:52.701Z,1.57
2017-12-24T21:08:23.992Z,1.60
2017-12-24T21:11:00.847Z,1.73
2017-12-24T21:17:34.302Z,2.37
2017-12-24T21:20:09.624Z,1.67
2017-12-24T21:22:45.680Z,1.37
2017-12-24T21:25:18.779Z,1.60
2017-12-24T21:38:31.585Z,1.30
2017-12-24T21:41:02.858Z,1.83
2017-12-24T21:43:32.600Z,1.37
2017-12-24T21:46:10.960Z,1.77
2017-12-24T21:48:45.675Z,1.50
2017-12-24T21:51:18.515Z,1.60
2017-12-24T21:53:52.759Z,1.30
2017-12-24T21:56:31.409Z,1.13
2017-12-24T21:59:28.380Z,1.20
2017-12-24T22:02:05.872Z,1.27
2017-12-24T22:04:39.361Z,1.30
2017-12-24T22:07:09.300Z,1.13
2017-12-24T22:09:39.303Z,1.50
2017-12-24T22:12:09.524Z,1.33
2017-12-24T22:14:44.244Z,1.50
2017-12-24T22:17:19.460Z,1.27
2017-12-24T22:19:53.848Z,1.40
2017-12-24T22:22:28.227Z,1.17
2017-12-24T22:25:06.789Z,1.37
2017-12-24T22:27:41.511Z,1.50
2017-12-24T22:30:19.188Z,1.43
2017-12-24T22:32:49.364Z,1.43
2017-12-24T22:35:20.913Z,1.53
2017-12-24T22:37:49.991Z,1.60
2017-12-24T22:40:24.807Z,1.77
2017-12-24T22:43:03.887Z,1.87
2017-12-24T22:46:00.275Z,1.93
2017-12-24T22:48:38.203Z,1.70
2017-12-24T22:51:14.552Z,1.80
2017-12-24T22:53:52.884Z,2.10
2017-12-24T22:56:29.982Z,2.20
2017-12-24T23:00:37.693Z,2.00
2017-12-24T23:03:14.818Z,2.20
2017-12-24T23:05:43.729Z,2.43
2017-12-24T23:08:13.582Z,2.20
2017-12-24T23:10:46.810Z,2.00
2017-12-24T23:13:19.751Z,2.50
2017-12-24T23:36:41.767Z,2.40
2017-12-24T23:39:12.981Z,2.23
2017-12-24T23:41:43.096Z,2.03
2017-12-24T23:44:39.374Z,2.67
2017-12-24T23:47:10.569Z,2.40
2017-12-24T23:49:39.944Z,2.37
2017-12-24T23:52:08.616Z,2.17
2017-12-24T23:54:37.704Z,2.70
2017-12-24T23:57:10.740Z,2.50
